Time;durP1;ratioP1;P1;durP2;ratioP2;P2;SDS_P1;SDS_P2;PMS_P1;PMS_P2;Temp;Humidity;BMP_temperature;BMP_pressure;BME280_temperature;BME280_humidity;BME280_pressure;Samples;Min_cycle;Max_cycle;Signal;HPM_P1;HPM_P2
2024/03/12 00:00:15;;;;;;;;;;;5.50;80.60;;;;;;5033439;28;19935;-64
2024/03/12 00:02:48;;;;;;;;;;;5.40;80.70;;;;;;5037499;28;19925;-63
2024/03/12 00:05:20;;;;;;;;;;;5.40;80.60;;;;;;5038396;28;19932;-64
2024/03/12 00:07:55;;;;;;;;;;;5.40;80.60;;;;;;5038344;28;19925;-64
2024/03/12 00:10:29;;;;;;;;;;;5.40;80.60;;;;;;5036234;28;19928;-65
2024/03/12 00:13:03;;;;;;;;;;;5.30;80.60;;;;;;5037271;28;20287;-64
2024/03/12 00:15:37;;;;;;;;;;;5.30;80.70;;;;;;5034825;28;19929;-64
2024/03/12 00:18:10;;;;;;;;;;;5.30;80.70;;;;;;5038090;28;19929;-63
2024/03/12 00:20:45;;;;;;;;;;;5.30;80.60;;;;;;5037123;28;19925;-64
2024/03/12 00:23:20;;;;;;;;;;;5.20;80.60;;;;;;5036816;28;20019;-64
2024/03/12 00:25:53;;;;;;;;;;;5.20;80.70;;;;;;5037455;28;19971;-63
2024/03/12 00:28:26;;;;;;;;;;;5.20;80.70;;;;;;5036307;28;19925;-64
2024/03/12 00:30:59;;;;;;;;;;;5.20;80.70;;;;;;5039520;28;19925;-63
2024/03/12 00:33:32;;;;;;;;;;;5.20;80.60;;;;;;5037350;28;19925;-64
2024/03/12 00:36:06;;;;;;;;;;;5.20;80.60;;;;;;5037739;28;19929;-63
2024/03/12 00:38:40;;;;;;;;;;;5.20;80.60;;;;;;5037965;28;19971;-63
2024/03/12 00:41:14;;;;;;;;;;;5.20;80.60;;;;;;5037167;28;19936;-63
2024/03/12 00:43:54;;;;;;;;;;;5.10;80.60;;;;;;5034928;28;20380;-64
2024/03/12 00:50:02;;;;;;;;;;;5.10;80.60;;;;;;5038348;28;19951;-64
2024/03/12 00:52:36;;;;;;;;;;;5.00;80.70;;;;;;5039475;28;19929;-62
2024/03/12 00:55:16;;;;;;;;;;;5.00;80.80;;;;;;5039357;28;19929;-64
2024/03/12 00:57:50;;;;;;;;;;;5.00;80.90;;;;;;5040199;28;19929;-64
2024/03/12 01:00:26;;;;;;;;;;;5.00;80.90;;;;;;5037770;28;19961;-63
2024/03/12 01:02:59;;;;;;;;;;;4.90;80.90;;;;;;5036492;28;19929;-62
2024/03/12 01:05:35;;;;;;;;;;;4.90;81.20;;;;;;5039085;28;19991;-63
2024/03/12 01:08:11;;;;;;;;;;;4.90;81.30;;;;;;5041267;28;20383;-62
2024/03/12 01:10:46;;;;;;;;;;;4.90;81.60;;;;;;5039237;28;19986;-61
2024/03/12 01:13:13;;;;;;;;;;;5.00;81.80;;;;;;5039937;28;20457;-62
2024/03/12 01:15:48;;;;;;;;;;;5.00;81.90;;;;;;5040834;28;19929;-62
2024/03/12 01:18:21;;;;;;;;;;;5.10;82.10;;;;;;5041733;28;19925;-63
2024/03/12 01:20:53;;;;;;;;;;;5.10;82.10;;;;;;5039877;28;19929;-62
2024/03/12 01:23:26;;;;;;;;;;;5.10;81.90;;;;;;5037788;28;19948;-62
2024/03/12 01:26:01;;;;;;;;;;;5.00;81.90;;;;;;5031393;28;19952;-63
2024/03/12 01:28:35;;;;;;;;;;;4.90;81.80;;;;;;5040376;28;20027;-63
2024/03/12 01:31:07;;;;;;;;;;;5.00;81.70;;;;;;5034507;28;20021;-63
2024/03/12 01:33:41;;;;;;;;;;;4.90;81.70;;;;;;5039277;28;19937;-62
2024/03/12 01:36:20;;;;;;;;;;;4.90;81.90;;;;;;5037165;28;20283;-61
2024/03/12 01:38:54;;;;;;;;;;;5.00;81.90;;;;;;5040937;28;19932;-63
2024/03/12 01:41:31;;;;;;;;;;;5.00;82.10;;;;;;5032358;28;19929;-63
2024/03/12 01:44:08;;;;;;;;;;;5.00;82.40;;;;;;5040050;28;19929;-61
2024/03/12 01:46:36;;;;;;;;;;;5.00;82.70;;;;;;5032477;28;21095;-62
2024/03/12 01:49:09;;;;;;;;;;;5.10;82.80;;;;;;5035772;28;20013;-62
2024/03/12 01:51:43;;;;;;;;;;;5.10;82.80;;;;;;5036231;28;19982;-62
2024/03/12 01:54:16;;;;;;;;;;;5.10;83.10;;;;;;5028775;28;20019;-62
2024/03/12 01:56:51;;;;;;;;;;;5.10;83.10;;;;;;5037412;28;20015;-63
2024/03/12 01:59:24;;;;;;;;;;;5.20;83.10;;;;;;5038588;28;19937;-64
2024/03/12 02:01:59;;;;;;;;;;;5.20;83.30;;;;;;5041210;28;19987;-62
2024/03/12 02:04:33;;;;;;;;;;;5.20;83.40;;;;;;5039585;28;19932;-62
2024/03/12 02:07:06;;;;;;;;;;;5.20;83.50;;;;;;5038948;28;20414;-62
2024/03/12 02:09:43;;;;;;;;;;;5.20;83.50;;;;;;5037843;28;20379;-62
2024/03/12 02:12:18;;;;;;;;;;;5.20;83.60;;;;;;5039085;28;19935;-71
2024/03/12 02:14:51;;;;;;;;;;;5.20;83.50;;;;;;5034731;28;20402;-72
2024/03/12 02:17:24;;;;;;;;;;;5.20;83.70;;;;;;5040193;28;19932;-72
2024/03/12 02:19:58;;;;;;;;;;;5.20;83.80;;;;;;5041782;28;19925;-73
2024/03/12 02:22:31;;;;;;;;;;;5.20;83.70;;;;;;5040120;28;19956;-74
2024/03/12 02:25:07;;;;;;;;;;;5.30;83.70;;;;;;5039593;28;19982;-72
2024/03/12 02:27:40;;;;;;;;;;;5.30;83.60;;;;;;5041033;28;19929;-72
2024/03/12 02:30:14;;;;;;;;;;;5.20;83.70;;;;;;5037042;28;19933;-74
2024/03/12 02:32:47;;;;;;;;;;;5.20;83.70;;;;;;5041587;28;19975;-73
2024/03/12 02:35:20;;;;;;;;;;;5.30;83.80;;;;;;5040076;28;19936;-73
2024/03/12 02:37:47;;;;;;;;;;;5.20;83.80;;;;;;5040619;28;20434;-74
2024/03/12 02:40:22;;;;;;;;;;;5.30;83.90;;;;;;5039595;28;19932;-73
2024/03/12 02:42:56;;;;;;;;;;;5.20;84.00;;;;;;5039507;28;20833;-73
2024/03/12 02:45:29;;;;;;;;;;;5.30;84.20;;;;;;5039617;28;19955;-71
2024/03/12 02:48:03;;;;;;;;;;;5.30;84.20;;;;;;5040436;28;19935;-72
2024/03/12 02:50:37;;;;;;;;;;;5.30;84.20;;;;;;5036792;28;20023;-74
2024/03/12 02:53:10;;;;;;;;;;;5.30;84.20;;;;;;5040196;28;19955;-72
2024/03/12 02:55:46;;;;;;;;;;;5.30;84.40;;;;;;5038765;28;20402;-74
2024/03/12 02:58:25;;;;;;;;;;;5.40;84.40;;;;;;5038733;28;19931;-74
2024/03/12 03:00:58;;;;;;;;;;;5.30;84.40;;;;;;5038266;28;19925;-74
2024/03/12 03:03:30;;;;;;;;;;;5.30;84.10;;;;;;5037763;28;19929;-74
2024/03/12 03:06:06;;;;;;;;;;;5.30;84.20;;;;;;5036772;28;20007;-74
2024/03/12 03:08:38;;;;;;;;;;;5.30;84.20;;;;;;5034056;28;20375;-71
2024/03/12 03:11:13;;;;;;;;;;;5.40;84.10;;;;;;5037299;28;19979;-71
2024/03/12 03:13:47;;;;;;;;;;;5.40;84.10;;;;;;5035391;28;19925;-73
2024/03/12 03:16:21;;;;;;;;;;;5.40;84.10;;;;;;5039366;28;20889;-75
2024/03/12 03:18:54;;;;;;;;;;;5.30;84.20;;;;;;5040480;28;20430;-72
2024/03/12 03:21:26;;;;;;;;;;;5.40;84.10;;;;;;5040656;28;19964;-59
2024/03/12 03:24:00;;;;;;;;;;;5.50;84.10;;;;;;5039033;28;19929;-59
2024/03/12 03:26:34;;;;;;;;;;;5.40;84.20;;;;;;5038153;28;19979;-60
2024/03/12 03:29:08;;;;;;;;;;;5.40;84.30;;;;;;5037318;28;19994;-59
2024/03/12 03:31:41;;;;;;;;;;;5.50;84.30;;;;;;5034944;28;19932;-60
2024/03/12 03:34:17;;;;;;;;;;;5.40;84.40;;;;;;5037340;28;19952;-60
2024/03/12 03:36:51;;;;;;;;;;;5.40;84.20;;;;;;5037689;28;20388;-59
2024/03/12 03:39:25;;;;;;;;;;;5.40;84.30;;;;;;5036739;28;20459;-60
2024/03/12 03:42:02;;;;;;;;;;;5.50;84.50;;;;;;5037445;28;20368;-59
2024/03/12 03:44:35;;;;;;;;;;;5.50;84.50;;;;;;5035701;28;19998;-60
2024/03/12 03:47:07;;;;;;;;;;;5.50;84.60;;;;;;5035711;28;21365;-61
2024/03/12 03:49:41;;;;;;;;;;;5.50;84.70;;;;;;5038548;28;20345;-60
2024/03/12 03:52:15;;;;;;;;;;;5.50;84.50;;;;;;5038711;28;19982;-59
2024/03/12 03:54:48;;;;;;;;;;;5.50;84.40;;;;;;5035684;28;20299;-59
2024/03/12 03:57:23;;;;;;;;;;;5.50;84.50;;;;;;5033407;28;19929;-60
2024/03/12 03:59:57;;;;;;;;;;;5.50;84.50;;;;;;5033509;28;20399;-60
2024/03/12 04:02:33;;;;;;;;;;;5.50;84.60;;;;;;5033820;28;19928;-59
2024/03/12 04:05:07;;;;;;;;;;;5.50;84.40;;;;;;5038482;28;19968;-58
2024/03/12 04:07:41;;;;;;;;;;;5.50;84.60;;;;;;5035626;28;22218;-59
2024/03/12 04:10:15;;;;;;;;;;;5.50;84.70;;;;;;5037616;28;20331;-60
2024/03/12 04:12:49;;;;;;;;;;;5.60;84.70;;;;;;5037312;28;19932;-60
2024/03/12 04:15:23;;;;;;;;;;;5.60;84.80;;;;;;5035072;28;19925;-60
2024/03/12 04:17:57;;;;;;;;;;;5.60;84.90;;;;;;5036949;28;20023;-59
2024/03/12 04:20:31;;;;;;;;;;;5.60;84.70;;;;;;5036998;28;19931;-60
2024/03/12 04:23:04;;;;;;;;;;;5.60;85.20;;;;;;5035723;28;19939;-60
2024/03/12 04:25:37;;;;;;;;;;;5.60;85.00;;;;;;5034871;28;19928;-61
2024/03/12 04:28:15;;;;;;;;;;;5.60;84.90;;;;;;5036750;28;19939;-59
2024/03/12 04:30:49;;;;;;;;;;;5.70;84.90;;;;;;5036321;28;19929;-63
2024/03/12 04:33:24;;;;;;;;;;;5.70;84.80;;;;;;5038057;28;20013;-62
2024/03/12 04:35:57;;;;;;;;;;;5.70;84.80;;;;;;5042291;28;19991;-64
2024/03/12 04:38:32;;;;;;;;;;;5.70;85.20;;;;;;5040048;28;19925;-63
2024/03/12 04:41:06;;;;;;;;;;;5.70;85.00;;;;;;5040837;28;20027;-63
2024/03/12 04:43:41;;;;;;;;;;;5.70;85.10;;;;;;5041486;28;20036;-63
2024/03/12 04:46:15;;;;;;;;;;;5.70;85.40;;;;;;5041677;28;20423;-64
2024/03/12 04:48:48;;;;;;;;;;;5.70;85.10;;;;;;5041582;28;20316;-63
2024/03/12 04:51:21;;;;;;;;;;;5.70;85.10;;;;;;5039311;28;20584;-64
2024/03/12 04:53:54;;;;;;;;;;;5.80;85.20;;;;;;5041476;28;20319;-64
2024/03/12 04:56:20;;;;;;;;;;;5.70;85.20;;;;;;5042257;28;19974;-65
2024/03/12 04:58:55;;;;;;;;;;;5.70;85.10;;;;;;5053609;28;19939;-63
2024/03/12 05:01:29;;;;;;;;;;;5.70;85.20;;;;;;5057609;28;19928;-62
2024/03/12 05:04:02;;;;;;;;;;;5.70;85.20;;;;;;5061034;28;20020;-64
2024/03/12 05:06:35;;;;;;;;;;;5.80;85.10;;;;;;5057183;28;19962;-64
2024/03/12 05:09:08;;;;;;;;;;;5.70;85.00;;;;;;5061914;28;19940;-63
2024/03/12 05:11:42;;;;;;;;;;;5.70;85.10;;;;;;5061856;28;19924;-64
2024/03/12 05:14:16;;;;;;;;;;;5.80;85.30;;;;;;5062564;28;20576;-63
2024/03/12 05:16:50;;;;;;;;;;;5.80;85.30;;;;;;5061276;28;20379;-63
2024/03/12 05:19:24;;;;;;;;;;;5.80;85.30;;;;;;5062449;28;19936;-64
2024/03/12 05:21:58;;;;;;;;;;;5.90;85.30;;;;;;5061316;28;19935;-64
2024/03/12 05:24:33;;;;;;;;;;;5.90;85.10;;;;;;5061599;28;19931;-63
2024/03/12 05:27:07;;;;;;;;;;;5.90;85.40;;;;;;5060925;28;19928;-64
2024/03/12 05:29:43;;;;;;;;;;;5.90;85.40;;;;;;5062119;28;19935;-64
2024/03/12 05:32:18;;;;;;;;;;;5.90;85.20;;;;;;5058783;28;19947;-62
2024/03/12 05:34:59;;;;;;;;;;;5.80;85.20;;;;;;5061982;28;20406;-63
2024/03/12 05:37:51;;;;;;;;;;;5.90;85.30;;;;;;5059789;28;19928;-64
2024/03/12 05:40:29;;;;;;;;;;;5.90;85.50;;;;;;5059511;28;19924;-59
2024/03/12 05:48:49;;;;;;;;;;;6.00;85.50;;;;;;5059424;28;19988;-72
2024/03/12 05:51:22;;;;;;;;;;;5.90;85.10;;;;;;5059466;28;20470;-70
2024/03/12 05:53:55;;;;;;;;;;;6.00;85.40;;;;;;5056260;28;19933;-70
2024/03/12 05:56:29;;;;;;;;;;;6.00;85.60;;;;;;5056907;28;19929;-72
2024/03/12 05:58:55;;;;;;;;;;;6.00;85.50;;;;;;5057961;28;20008;-72
2024/03/12 06:01:30;;;;;;;;;;;6.00;85.70;;;;;;5059169;28;19925;-71
2024/03/12 06:04:04;;;;;;;;;;;6.00;85.70;;;;;;5056681;28;20033;-70
2024/03/12 06:06:38;;;;;;;;;;;5.90;85.70;;;;;;5057508;28;19935;-71
2024/03/12 06:09:11;;;;;;;;;;;6.00;85.70;;;;;;5058639;28;19925;-71
2024/03/12 06:11:44;;;;;;;;;;;6.00;85.50;;;;;;5057683;28;20015;-70
2024/03/12 06:14:18;;;;;;;;;;;6.00;85.80;;;;;;5060480;28;19960;-71
2024/03/12 06:16:53;;;;;;;;;;;6.00;85.70;;;;;;5058612;28;20041;-72
2024/03/12 06:19:27;;;;;;;;;;;6.10;85.60;;;;;;5058449;28;20432;-71
2024/03/12 06:22:00;;;;;;;;;;;6.00;85.50;;;;;;5058104;28;20299;-71
2024/03/12 06:24:33;;;;;;;;;;;6.10;85.70;;;;;;5058191;28;20011;-71
2024/03/12 06:27:07;;;;;;;;;;;6.10;85.80;;;;;;5058456;28;20014;-72
2024/03/12 06:29:41;;;;;;;;;;;6.10;85.70;;;;;;5057241;28;20272;-71
2024/03/12 06:32:17;;;;;;;;;;;6.10;85.40;;;;;;5057223;28;20725;-72
2024/03/12 06:34:51;;;;;;;;;;;6.10;85.60;;;;;;5059344;28;19970;-70
2024/03/12 06:37:25;;;;;;;;;;;6.20;85.60;;;;;;5058797;28;19994;-73
2024/03/12 06:39:59;;;;;;;;;;;6.10;85.40;;;;;;5061169;28;19939;-72
2024/03/12 06:42:32;;;;;;;;;;;6.20;85.50;;;;;;5055868;28;19928;-71
2024/03/12 06:45:05;;;;;;;;;;;6.20;85.70;;;;;;5061001;28;19979;-72
2024/03/12 06:47:41;;;;;;;;;;;6.20;85.60;;;;;;5058214;28;20015;-73
2024/03/12 06:50:15;;;;;;;;;;;6.20;85.80;;;;;;5057000;28;20002;-71
2024/03/12 06:52:50;;;;;;;;;;;6.20;85.30;;;;;;5059331;28;19932;-72
2024/03/12 06:55:24;;;;;;;;;;;6.30;85.10;;;;;;5057283;28;19929;-72
2024/03/12 06:58:04;;;;;;;;;;;6.30;85.30;;;;;;5058888;28;19924;-71
2024/03/12 07:00:39;;;;;;;;;;;6.30;85.40;;;;;;5059227;28;20007;-72
2024/03/12 07:03:16;;;;;;;;;;;6.30;85.40;;;;;;5057403;28;20638;-72
2024/03/12 07:05:50;;;;;;;;;;;6.40;85.60;;;;;;5059333;28;19928;-71
2024/03/12 07:08:25;;;;;;;;;;;6.40;85.80;;;;;;5059086;28;19932;-72
2024/03/12 07:10:58;;;;;;;;;;;6.40;85.70;;;;;;5057093;28;20291;-72
2024/03/12 07:13:31;;;;;;;;;;;6.50;85.70;;;;;;5059453;28;19924;-71
2024/03/12 07:16:06;;;;;;;;;;;6.50;85.80;;;;;;5058494;28;19971;-72
2024/03/12 07:18:41;;;;;;;;;;;6.60;85.90;;;;;;5057093;28;20446;-72
2024/03/12 07:21:22;;;;;;;;;;;6.60;86.10;;;;;;5058020;28;19939;-72
2024/03/12 07:23:55;;;;;;;;;;;6.70;86.10;;;;;;5057439;28;20641;-70
2024/03/12 07:26:22;;;;;;;;;;;6.70;86.10;;;;;;5058802;28;19925;-72
2024/03/12 07:28:57;;;;;;;;;;;6.70;86.20;;;;;;5057916;28;19931;-69
2024/03/12 07:31:25;;;;;;;;;;;6.80;86.30;;;;;;5055880;28;20023;-70
2024/03/12 07:34:00;;;;;;;;;;;6.90;86.40;;;;;;5056838;28;21221;-70
2024/03/12 07:39:44;;;;;;;;;;;7.00;86.70;;;;;;5059216;28;19931;-70
2024/03/12 07:42:19;;;;;;;;;;;7.10;86.70;;;;;;5055027;28;20286;-72
2024/03/12 07:44:53;;;;;;;;;;;7.10;86.60;;;;;;5058181;28;19932;-71
2024/03/12 07:47:28;;;;;;;;;;;7.10;86.90;;;;;;5057874;28;20038;-71
2024/03/12 07:50:11;;;;;;;;;;;7.10;86.80;;;;;;5056355;28;19928;-72
2024/03/12 07:52:45;;;;;;;;;;;7.20;86.90;;;;;;5057773;28;19935;-71
2024/03/12 07:55:19;;;;;;;;;;;7.30;86.90;;;;;;5057402;28;19924;-72
2024/03/12 07:57:53;;;;;;;;;;;7.40;87.00;;;;;;5059966;28;19925;-72
2024/03/12 08:00:26;;;;;;;;;;;7.40;87.10;;;;;;5055114;28;20039;-63
2024/03/12 08:02:59;;;;;;;;;;;7.40;87.20;;;;;;5058338;28;19952;-58
2024/03/12 08:05:33;;;;;;;;;;;7.40;87.20;;;;;;5057395;28;19928;-59
2024/03/12 08:08:07;;;;;;;;;;;7.50;87.30;;;;;;5055756;28;20055;-58
2024/03/12 08:10:41;;;;;;;;;;;7.60;87.20;;;;;;5055488;28;19928;-59
2024/03/12 08:13:14;;;;;;;;;;;7.60;87.30;;;;;;5056677;28;20028;-59
2024/03/12 08:15:48;;;;;;;;;;;7.70;87.30;;;;;;5055662;28;19935;-58
2024/03/12 08:18:21;;;;;;;;;;;7.70;87.20;;;;;;5057663;28;19937;-60
2024/03/12 08:20:56;;;;;;;;;;;7.80;87.10;;;;;;5058432;28;19978;-58
2024/03/12 08:23:30;;;;;;;;;;;7.90;87.10;;;;;;5056349;28;20017;-58
2024/03/12 08:25:56;;;;;;;;;;;7.90;87.10;;;;;;5056194;28;19972;-58
2024/03/12 08:28:30;;;;;;;;;;;8.00;87.10;;;;;;5057229;28;20307;-58
2024/03/12 08:31:04;;;;;;;;;;;8.00;87.10;;;;;;5056643;28;20485;-58
2024/03/12 08:33:41;;;;;;;;;;;8.10;87.10;;;;;;5056526;28;20281;-58
2024/03/12 08:36:15;;;;;;;;;;;8.20;87.10;;;;;;5054473;28;19932;-59
2024/03/12 08:38:49;;;;;;;;;;;8.20;87.10;;;;;;5057566;28;19932;-58
2024/03/12 08:41:22;;;;;;;;;;;8.20;87.10;;;;;;5056079;28;19925;-58
2024/03/12 08:43:55;;;;;;;;;;;8.20;87.00;;;;;;5054671;28;19925;-57
2024/03/12 08:46:28;;;;;;;;;;;8.30;87.00;;;;;;5059390;28;19947;-57
2024/03/12 08:49:01;;;;;;;;;;;8.30;87.00;;;;;;5053255;28;19936;-58
2024/03/12 08:51:36;;;;;;;;;;;8.30;87.20;;;;;;5058366;28;19924;-59
2024/03/12 08:54:09;;;;;;;;;;;8.30;87.20;;;;;;5056893;28;19956;-59
2024/03/12 08:56:43;;;;;;;;;;;8.30;87.30;;;;;;5056100;28;19936;-57
2024/03/12 08:59:16;;;;;;;;;;;8.40;87.50;;;;;;5056459;28;19924;-58
2024/03/12 09:01:49;;;;;;;;;;;8.50;87.70;;;;;;5054496;28;19947;-58
2024/03/12 09:04:23;;;;;;;;;;;8.50;87.60;;;;;;5054744;28;20031;-59
2024/03/12 09:06:57;;;;;;;;;;;8.60;87.60;;;;;;5056064;28;19932;-59
2024/03/12 09:09:31;;;;;;;;;;;8.70;87.70;;;;;;5057109;28;20007;-59
2024/03/12 09:12:05;;;;;;;;;;;8.80;87.30;;;;;;5059894;28;19935;-65
2024/03/12 09:14:38;;;;;;;;;;;8.90;87.30;;;;;;5059482;28;19928;-63
2024/03/12 09:17:11;;;;;;;;;;;8.90;87.20;;;;;;5060313;28;20020;-62
2024/03/12 09:19:44;;;;;;;;;;;8.80;87.20;;;;;;5059662;28;19928;-63
2024/03/12 09:22:18;;;;;;;;;;;8.90;87.30;;;;;;5057119;28;19960;-63
2024/03/12 09:24:53;;;;;;;;;;;8.90;87.20;;;;;;5058533;28;19924;-63
2024/03/12 09:27:27;;;;;;;;;;;8.90;87.00;;;;;;5055673;28;19931;-63
2024/03/12 09:30:00;;;;;;;;;;;9.00;87.00;;;;;;5061414;28;19990;-63
2024/03/12 09:32:33;;;;;;;;;;;9.10;86.90;;;;;;5059085;28;19925;-63
2024/03/12 09:35:02;;;;;;;;;;;9.10;86.80;;;;;;5062087;28;20016;-64
2024/03/12 09:37:37;;;;;;;;;;;9.20;86.90;;;;;;5057391;28;19932;-63
2024/03/12 09:40:13;;;;;;;;;;;9.20;86.70;;;;;;5060458;28;19929;-63
2024/03/12 09:42:47;;;;;;;;;;;9.20;86.40;;;;;;5058784;28;19936;-63
2024/03/12 09:45:21;;;;;;;;;;;9.30;86.50;;;;;;5057745;28;19970;-64
2024/03/12 09:47:54;;;;;;;;;;;9.30;86.60;;;;;;5058650;28;19966;-64
2024/03/12 09:50:29;;;;;;;;;;;9.30;86.50;;;;;;5060150;28;19929;-62
2024/03/12 09:53:04;;;;;;;;;;;9.20;86.30;;;;;;5054736;28;20743;-64
2024/03/12 09:55:37;;;;;;;;;;;9.20;86.40;;;;;;5057378;28;19924;-63
2024/03/12 09:58:10;;;;;;;;;;;9.30;86.20;;;;;;5058093;28;20620;-63
2024/03/12 10:00:43;;;;;;;;;;;9.40;86.30;;;;;;5059885;28;19935;-63
2024/03/12 10:03:17;;;;;;;;;;;9.50;86.00;;;;;;5059544;28;19939;-64
2024/03/12 10:05:53;;;;;;;;;;;9.60;86.00;;;;;;5058438;28;19967;-63
2024/03/12 10:08:29;;;;;;;;;;;9.70;85.50;;;;;;5057922;28;20063;-63
2024/03/12 10:11:07;;;;;;;;;;;9.70;85.40;;;;;;5059927;28;20580;-62
2024/03/12 10:13:41;;;;;;;;;;;9.90;85.10;;;;;;5056645;28;20453;-62
2024/03/12 10:16:19;;;;;;;;;;;9.90;85.00;;;;;;5057087;28;19991;-63
2024/03/12 10:19:06;;;;;;;;;;;10.00;85.00;;;;;;5060843;28;19931;-64
2024/03/12 10:21:40;;;;;;;;;;;10.10;84.80;;;;;;5059045;28;19952;-59
2024/03/12 10:24:17;;;;;;;;;;;10.10;84.70;;;;;;5058048;28;19929;-59
2024/03/12 10:26:50;;;;;;;;;;;10.20;84.50;;;;;;5058586;28;19924;-58
2024/03/12 10:29:24;;;;;;;;;;;10.20;84.40;;;;;;5057891;28;21847;-58
2024/03/12 10:31:57;;;;;;;;;;;10.20;84.30;;;;;;5059473;28;19935;-58
2024/03/12 10:34:30;;;;;;;;;;;10.30;84.20;;;;;;5057534;28;20295;-58
2024/03/12 10:37:04;;;;;;;;;;;10.30;84.20;;;;;;5056120;28;20500;-58
2024/03/12 10:39:39;;;;;;;;;;;10.20;84.10;;;;;;5058170;28;20509;-58
2024/03/12 10:42:21;;;;;;;;;;;10.30;84.10;;;;;;5058458;28;19931;-59
2024/03/12 10:44:56;;;;;;;;;;;10.20;84.10;;;;;;5058987;28;19962;-59
2024/03/12 10:47:30;;;;;;;;;;;10.10;84.10;;;;;;5058604;28;20342;-58
2024/03/12 10:50:06;;;;;;;;;;;10.10;84.30;;;;;;5057926;28;19929;-59
2024/03/12 10:52:40;;;;;;;;;;;10.10;84.60;;;;;;5061901;28;19932;-59
2024/03/12 10:55:21;;;;;;;;;;;10.10;84.70;;;;;;5061444;28;19936;-59
2024/03/12 10:58:00;;;;;;;;;;;10.00;85.20;;;;;;5060910;28;19963;-59
2024/03/12 11:00:39;;;;;;;;;;;10.00;85.30;;;;;;5065287;28;19924;-59
2024/03/12 11:03:15;;;;;;;;;;;10.00;85.60;;;;;;5057668;28;20009;-58
2024/03/12 11:05:50;;;;;;;;;;;10.00;85.80;;;;;;5057617;28;20011;-59
2024/03/12 11:08:18;;;;;;;;;;;10.00;85.90;;;;;;5058003;28;19932;-58
2024/03/12 11:10:55;;;;;;;;;;;10.00;86.00;;;;;;5057255;28;20440;-58
2024/03/12 11:13:29;;;;;;;;;;;9.90;86.20;;;;;;5059842;28;19928;-59
2024/03/12 11:16:09;;;;;;;;;;;10.00;86.20;;;;;;5060571;28;19951;-58
2024/03/12 11:18:45;;;;;;;;;;;9.90;86.10;;;;;;5059617;28;19935;-57
2024/03/12 11:21:23;;;;;;;;;;;9.90;86.10;;;;;;5057376;28;19932;-60
2024/03/12 11:23:57;;;;;;;;;;;9.90;86.10;;;;;;5061987;28;19974;-57
2024/03/12 11:26:34;;;;;;;;;;;9.90;85.90;;;;;;5046118;28;19936;-59
2024/03/12 11:29:07;;;;;;;;;;;9.90;85.90;;;;;;5056326;28;19932;-60
2024/03/12 11:31:41;;;;;;;;;;;9.90;85.90;;;;;;5058583;28;19932;-64
2024/03/12 11:34:35;;;;;;;;;;;9.90;85.70;;;;;;5056637;28;20383;-63
2024/03/12 11:40:47;;;;;;;;;;;9.80;85.80;;;;;;5049062;28;19986;-63
2024/03/12 11:43:37;;;;;;;;;;;9.80;85.60;;;;;;5057318;28;19932;-63
2024/03/12 11:46:10;;;;;;;;;;;9.80;85.70;;;;;;5056826;28;19975;-63
2024/03/12 11:48:45;;;;;;;;;;;9.90;85.80;;;;;;5055609;28;19924;-62
2024/03/12 11:51:19;;;;;;;;;;;9.90;85.90;;;;;;5054710;28;19932;-64
2024/03/12 11:53:53;;;;;;;;;;;9.90;85.80;;;;;;5058543;28;19928;-64
2024/03/12 11:56:27;;;;;;;;;;;10.00;85.70;;;;;;5057677;28;19932;-63
2024/03/12 11:59:02;;;;;;;;;;;10.10;85.60;;;;;;5058502;28;19925;-62
2024/03/12 12:01:38;;;;;;;;;;;10.10;85.50;;;;;;5056132;28;19932;-63
2024/03/12 12:04:14;;;;;;;;;;;10.10;85.40;;;;;;5056925;28;20011;-63
2024/03/12 12:06:47;;;;;;;;;;;10.10;85.20;;;;;;5052882;28;19928;-63
2024/03/12 12:09:22;;;;;;;;;;;10.10;85.40;;;;;;5056360;28;19924;-63
2024/03/12 12:11:51;;;;;;;;;;;10.10;85.40;;;;;;5055931;28;19928;-63
2024/03/12 12:14:26;;;;;;;;;;;10.10;85.50;;;;;;5056969;28;19964;-63
2024/03/12 12:17:00;;;;;;;;;;;10.10;85.20;;;;;;5058641;28;19935;-62
2024/03/12 12:19:34;;;;;;;;;;;10.10;85.30;;;;;;5056726;28;20011;-63
2024/03/12 12:22:00;;;;;;;;;;;10.10;85.20;;;;;;5056219;28;19956;-64
2024/03/12 12:24:34;;;;;;;;;;;10.10;85.10;;;;;;5057399;28;20172;-63
2024/03/12 12:27:07;;;;;;;;;;;10.10;85.20;;;;;;5056191;28;20043;-64
2024/03/12 12:29:41;;;;;;;;;;;10.10;85.00;;;;;;5056475;28;22530;-62
2024/03/12 12:32:16;;;;;;;;;;;10.00;84.60;;;;;;5057034;28;19931;-63
2024/03/12 12:34:51;;;;;;;;;;;9.90;84.50;;;;;;5056382;28;19975;-62
2024/03/12 12:37:21;;;;;;;;;;;9.80;84.80;;;;;;5055073;28;19939;-62
2024/03/12 12:39:54;;;;;;;;;;;9.80;84.80;;;;;;5057462;28;19925;-62
2024/03/12 12:42:27;;;;;;;;;;;9.70;84.90;;;;;;5055791;28;19924;-60
2024/03/12 12:45:05;;;;;;;;;;;9.70;85.00;;;;;;5057153;28;19974;-60
2024/03/12 12:47:38;;;;;;;;;;;9.70;85.10;;;;;;5062433;28;19935;-60
2024/03/12 12:50:11;;;;;;;;;;;9.70;85.00;;;;;;5061251;28;20025;-60
2024/03/12 12:52:44;;;;;;;;;;;9.70;85.00;;;;;;5060541;28;20008;-61
2024/03/12 12:55:17;;;;;;;;;;;9.70;85.00;;;;;;5060136;28;19925;-61
2024/03/12 12:57:58;;;;;;;;;;;9.70;85.00;;;;;;5063307;28;20366;-61
2024/03/12 13:00:35;;;;;;;;;;;9.70;85.10;;;;;;5050647;28;19929;-60
2024/03/12 13:03:12;;;;;;;;;;;9.80;85.10;;;;;;5058299;28;19925;-60
2024/03/12 13:05:46;;;;;;;;;;;9.90;85.00;;;;;;5061050;28;19932;-60
2024/03/12 13:08:19;;;;;;;;;;;10.00;85.00;;;;;;5061663;28;19933;-61
2024/03/12 13:10:58;;;;;;;;;;;10.10;84.90;;;;;;5061372;28;19931;-61
2024/03/12 13:13:31;;;;;;;;;;;10.10;84.70;;;;;;5061381;28;19929;-60
2024/03/12 13:16:17;;;;;;;;;;;10.20;84.60;;;;;;5058772;28;20013;-60
2024/03/12 13:18:51;;;;;;;;;;;10.20;84.60;;;;;;5059093;28;19929;-61
2024/03/12 13:21:25;;;;;;;;;;;10.20;84.30;;;;;;5058460;28;19933;-60
2024/03/12 13:23:58;;;;;;;;;;;10.30;84.20;;;;;;5059554;28;19928;-60
2024/03/12 13:26:32;;;;;;;;;;;10.30;84.00;;;;;;5060764;28;20363;-61
2024/03/12 13:29:06;;;;;;;;;;;10.30;84.00;;;;;;5059098;28;19928;-62
2024/03/12 13:31:43;;;;;;;;;;;10.40;84.10;;;;;;5060079;28;19931;-60
2024/03/12 13:34:18;;;;;;;;;;;10.40;84.00;;;;;;5059008;28;19935;-60
2024/03/12 13:36:52;;;;;;;;;;;10.50;83.90;;;;;;5060583;28;19929;-62
2024/03/12 13:39:25;;;;;;;;;;;10.60;83.80;;;;;;5061348;28;19959;-61
2024/03/12 13:42:30;;;;;;;;;;;10.60;83.70;;;;;;5059852;28;19932;-59
2024/03/12 13:45:04;;;;;;;;;;;10.60;83.60;;;;;;5060664;28;20329;-61
2024/03/12 13:47:38;;;;;;;;;;;10.60;83.60;;;;;;5061304;28;19925;-61
2024/03/12 13:50:12;;;;;;;;;;;10.60;83.60;;;;;;5060843;28;19925;-59
2024/03/12 13:52:47;;;;;;;;;;;10.60;83.60;;;;;;5061017;28;20023;-60
2024/03/12 13:55:20;;;;;;;;;;;10.60;83.60;;;;;;5060804;28;19929;-59
2024/03/12 13:57:54;;;;;;;;;;;10.60;83.70;;;;;;5060366;28;19925;-60
2024/03/12 14:00:27;;;;;;;;;;;10.60;83.80;;;;;;5060084;28;19960;-60
2024/03/12 14:03:03;;;;;;;;;;;10.50;83.80;;;;;;5061415;28;19924;-59
2024/03/12 14:05:36;;;;;;;;;;;10.50;83.80;;;;;;5055396;28;20399;-59
2024/03/12 14:08:09;;;;;;;;;;;10.50;83.90;;;;;;5060802;28;19928;-59
2024/03/12 14:10:42;;;;;;;;;;;10.60;83.80;;;;;;5059414;28;19929;-62
2024/03/12 14:13:18;;;;;;;;;;;10.60;83.80;;;;;;5061917;28;20338;-59
2024/03/12 14:15:52;;;;;;;;;;;10.60;83.70;;;;;;5057740;28;19968;-60
2024/03/12 14:18:27;;;;;;;;;;;10.60;83.60;;;;;;5059129;28;19986;-60
2024/03/12 14:21:00;;;;;;;;;;;10.50;83.50;;;;;;5059316;28;19924;-60
2024/03/12 14:23:33;;;;;;;;;;;10.50;83.50;;;;;;5058712;28;19939;-59
2024/03/12 14:26:06;;;;;;;;;;;10.60;83.40;;;;;;5059615;28;19928;-60
2024/03/12 14:28:39;;;;;;;;;;;10.60;83.30;;;;;;5060087;28;19967;-59
2024/03/12 14:31:06;;;;;;;;;;;10.60;83.30;;;;;;5060009;28;19928;-60
2024/03/12 14:33:41;;;;;;;;;;;10.60;83.30;;;;;;5059840;28;20352;-60
2024/03/12 14:36:16;;;;;;;;;;;10.60;83.20;;;;;;5059843;28;19971;-60
2024/03/12 14:38:43;;;;;;;;;;;10.60;83.00;;;;;;5056272;28;19940;-60
2024/03/12 14:41:16;;;;;;;;;;;10.60;83.00;;;;;;5060409;28;19935;-59
2024/03/12 14:43:50;;;;;;;;;;;10.60;82.80;;;;;;5060071;28;19925;-61
2024/03/12 14:46:23;;;;;;;;;;;10.60;82.70;;;;;;5057952;28;19987;-61
2024/03/12 14:52:28;;;;;;;;;;;10.50;82.60;;;;;;5055971;28;19957;-61
2024/03/12 14:55:03;;;;;;;;;;;10.50;82.60;;;;;;5058594;28;19925;-59
2024/03/12 14:57:36;;;;;;;;;;;10.50;82.60;;;;;;5058920;28;19928;-60
2024/03/12 15:00:11;;;;;;;;;;;10.50;82.50;;;;;;5058810;28;19928;-60
2024/03/12 15:02:45;;;;;;;;;;;10.40;82.50;;;;;;5057350;28;19967;-60
2024/03/12 15:08:58;;;;;;;;;;;10.50;82.50;;;;;;5057522;28;19932;-59
2024/03/12 15:11:32;;;;;;;;;;;10.40;83.00;;;;;;5055829;28;19928;-61
2024/03/12 15:14:06;;;;;;;;;;;10.40;82.70;;;;;;5058704;28;19939;-60
2024/03/12 15:17:11;;;;;;;;;;;10.30;83.10;;;;;;5057373;28;20628;-59
2024/03/12 15:19:44;;;;;;;;;;;10.20;83.50;;;;;;5057538;28;19933;-60
2024/03/12 15:22:20;;;;;;;;;;;10.20;83.90;;;;;;5058628;28;19932;-60
2024/03/12 15:24:54;;;;;;;;;;;10.10;84.30;;;;;;5058054;28;20364;-59
2024/03/12 15:27:28;;;;;;;;;;;10.10;84.60;;;;;;5058721;28;19928;-59
2024/03/12 15:30:01;;;;;;;;;;;10.10;84.70;;;;;;5060719;28;19932;-60